createdAt,value
2023-04-17T00:01:48.610Z,100748.33
2023-04-17T00:04:16.270Z,100748.99
2023-04-17T00:06:43.668Z,100748.40
2023-04-17T00:09:12.221Z,100747.88
2023-04-17T00:11:39.926Z,100746.13
2023-04-17T00:14:07.137Z,100742.88
2023-04-17T00:16:34.318Z,100744.14
2023-04-17T00:19:01.506Z,100745.88
2023-04-17T00:21:32.098Z,100747.73
2023-04-17T00:23:59.302Z,100744.33
2023-04-17T00:26:26.459Z,100749.23
2023-04-17T00:28:53.641Z,100748.46
2023-04-17T00:31:20.735Z,100746.08
2023-04-17T00:33:47.860Z,100746.73
2023-04-17T00:36:15.608Z,100747.48
2023-04-17T00:38:42.984Z,100746.68
2023-04-17T00:41:10.630Z,100750.98
2023-04-17T00:43:38.655Z,100754.17
2023-04-17T00:46:06.348Z,100752.13
2023-04-17T00:48:35.595Z,100754.77
2023-04-17T00:51:03.490Z,100758.29
2023-04-17T00:53:33.950Z,100760.29
2023-04-17T00:56:03.649Z,100755.44
2023-04-17T00:58:31.678Z,100756.41
2023-04-17T01:00:59.756Z,100761.23
2023-04-17T01:03:30.159Z,100762.77
2023-04-17T01:05:58.145Z,100767.08
2023-04-17T01:08:25.531Z,100766.31
2023-04-17T01:10:52.682Z,100763.02
2023-04-17T01:13:20.709Z,100762.63
2023-04-17T01:15:48.373Z,100764.19
2023-04-17T01:18:16.617Z,100767.05
2023-04-17T01:20:43.750Z,100768.65
2023-04-17T01:23:11.741Z,100769.34
2023-04-17T01:25:40.219Z,100772.77
2023-04-17T01:28:07.998Z,100772.34
2023-04-17T01:30:35.525Z,100772.58
2023-04-17T01:33:06.487Z,100775.33
2023-04-17T01:35:33.839Z,100775.59
2023-04-17T01:38:00.988Z,100773.27
2023-04-17T01:40:28.201Z,100777.46
2023-04-17T01:42:55.376Z,100777.67
2023-04-17T01:45:22.486Z,100778.42
2023-04-17T01:47:50.784Z,100773.75
2023-04-17T01:50:18.314Z,100769.02
2023-04-17T01:52:45.633Z,100776.30
2023-04-17T01:55:12.844Z,100777.15
2023-04-17T01:57:39.845Z,100776.34
2023-04-17T02:00:09.509Z,100778.40
2023-04-17T02:02:40.037Z,100779.38
2023-04-17T02:05:08.095Z,100783.04
2023-04-17T02:07:35.153Z,100782.86
2023-04-17T02:10:02.314Z,100783.65
2023-04-17T02:12:29.430Z,100781.01
2023-04-17T02:15:01.260Z,100775.95
2023-04-17T02:17:28.726Z,100776.33
2023-04-17T02:19:55.883Z,100779.06
2023-04-17T02:22:23.623Z,100781.20
2023-04-17T02:24:51.774Z,100780.09
2023-04-17T02:27:19.898Z,100781.92
2023-04-17T02:29:46.965Z,100781.80
2023-04-17T02:32:16.780Z,100785.65
2023-04-17T02:34:44.198Z,100786.56
2023-04-17T02:37:11.761Z,100787.63
2023-04-17T02:39:39.261Z,100784.30
2023-04-17T02:42:06.456Z,100783.21
2023-04-17T02:44:33.706Z,100783.89
2023-04-17T02:47:01.217Z,100785.82
2023-04-17T02:49:30.596Z,100787.16
2023-04-17T02:51:58.382Z,100787.95
2023-04-17T02:54:25.635Z,100784.77
2023-04-17T02:56:53.267Z,100783.34
2023-04-17T02:59:20.454Z,100782.84
2023-04-17T03:01:48.349Z,100780.27
2023-04-17T03:04:15.907Z,100784.13
2023-04-17T03:06:43.188Z,100786.70
2023-04-17T03:09:12.406Z,100785.54
2023-04-17T03:11:39.993Z,100789.54
2023-04-17T03:14:07.081Z,100783.81
2023-04-17T03:16:34.346Z,100780.63
2023-04-17T03:19:03.381Z,100781.56
2023-04-17T03:21:31.530Z,100783.92
2023-04-17T03:23:58.999Z,100785.90
2023-04-17T03:26:26.077Z,100791.02
2023-04-17T03:28:53.701Z,100792.15
2023-04-17T03:31:24.523Z,100787.59
2023-04-17T03:33:52.088Z,100790.52
2023-04-17T03:36:19.754Z,100789.29
2023-04-17T03:38:47.225Z,100792.72
2023-04-17T03:41:15.609Z,100793.70
2023-04-17T03:43:42.768Z,100792.38
2023-04-17T03:46:10.131Z,100790.88
2023-04-17T03:48:38.147Z,100799.79
2023-04-17T03:51:06.528Z,100799.27
2023-04-17T03:53:33.891Z,100801.04
2023-04-17T03:56:02.462Z,100801.04
2023-04-17T03:58:33.216Z,100805.24
2023-04-17T04:01:02.167Z,100805.86
2023-04-17T04:03:31.807Z,100808.88
2023-04-17T04:05:59.663Z,100805.96
2023-04-17T04:08:26.751Z,100810.96
2023-04-17T04:10:54.598Z,100814.11
2023-04-17T04:13:34.019Z,100816.06
2023-04-17T04:16:01.739Z,100816.34
2023-04-17T04:18:29.918Z,100817.36
2023-04-17T04:20:57.859Z,100818.98
2023-04-17T04:23:28.239Z,100816.13
2023-04-17T04:25:57.026Z,100821.86
2023-04-17T04:28:30.325Z,100821.42
2023-04-17T04:30:58.998Z,100824.67
2023-04-17T04:33:30.234Z,100828.57
2023-04-17T04:36:01.258Z,100829.00
2023-04-17T04:38:33.061Z,100829.97
2023-04-17T04:41:10.442Z,100830.52
2023-04-17T04:43:38.822Z,100833.95
2023-04-17T04:46:06.871Z,100838.44
2023-04-17T04:48:36.347Z,100839.36
2023-04-17T04:51:03.729Z,100838.71
2023-04-17T04:53:30.825Z,100838.91
2023-04-17T04:55:58.724Z,100838.39
2023-04-17T04:58:26.488Z,100837.58
2023-04-17T05:00:56.370Z,100836.15
2023-04-17T05:03:30.310Z,100836.09
2023-04-17T05:05:58.527Z,100835.81
2023-04-17T05:08:28.682Z,100842.89
2023-04-17T05:11:02.171Z,100843.91
2023-04-17T05:13:30.536Z,100844.84
2023-04-17T05:16:00.319Z,100848.11
2023-04-17T05:18:29.210Z,100845.94
2023-04-17T05:20:56.465Z,100845.19
2023-04-17T05:23:25.139Z,100845.58
2023-04-17T05:25:52.453Z,100848.46
2023-04-17T05:28:19.621Z,100854.66
2023-04-17T05:30:49.146Z,100854.41
2023-04-17T05:33:24.562Z,100855.34
2023-04-17T05:35:56.092Z,100856.27
2023-04-17T05:38:23.784Z,100855.99
2023-04-17T05:40:53.379Z,100858.27
2023-04-17T05:43:20.550Z,100856.09
2023-04-17T05:45:47.817Z,100860.06
2023-04-17T05:48:15.140Z,100860.88
2023-04-17T05:50:42.338Z,100862.67
2023-04-17T05:53:09.552Z,100863.65
2023-04-17T05:55:42.890Z,100863.79
2023-04-17T06:00:45.088Z,100865.42
2023-04-17T06:03:13.628Z,100863.19
2023-04-17T06:05:41.704Z,100864.71
2023-04-17T06:08:09.481Z,100866.73
2023-04-17T06:10:36.765Z,100867.83
2023-04-17T06:13:03.876Z,100867.17
2023-04-17T06:15:31.501Z,100870.88
2023-04-17T06:17:58.795Z,100869.98
2023-04-17T06:20:25.897Z,100871.79
2023-04-17T06:22:54.142Z,100872.20
2023-04-17T06:25:23.211Z,100874.71
2023-04-17T06:27:50.463Z,100870.43
2023-04-17T06:30:17.549Z,100873.45
2023-04-17T06:32:50.064Z,100873.31
2023-04-17T06:35:19.237Z,100875.17
2023-04-17T06:38:04.334Z,100877.27
2023-04-17T06:40:31.542Z,100875.66
2023-04-17T06:42:58.748Z,100878.56
2023-04-17T06:45:27.989Z,100879.59
2023-04-17T06:47:55.270Z,100880.25
2023-04-17T06:50:22.621Z,100880.70
2023-04-17T06:52:51.004Z,100884.52
2023-04-17T06:55:18.122Z,100887.24
2023-04-17T06:57:45.206Z,100890.52
2023-04-17T07:00:13.057Z,100892.88
2023-04-17T07:02:40.160Z,100893.20
2023-04-17T07:05:07.842Z,100896.82
2023-04-17T07:07:36.135Z,100895.19
2023-04-17T07:10:04.343Z,100896.63
2023-04-17T07:12:31.472Z,100898.38
2023-04-17T07:14:58.789Z,100899.10
2023-04-17T07:17:27.427Z,100905.58
2023-04-17T07:19:55.224Z,100904.46
2023-04-17T07:22:23.986Z,100909.85
2023-04-17T07:24:52.457Z,100914.45
2023-04-17T07:27:19.560Z,100916.53
2023-04-17T07:29:52.940Z,100919.14
2023-04-17T07:32:21.597Z,100919.13
2023-04-17T07:34:48.683Z,100920.55
2023-04-17T07:37:15.849Z,100921.48
2023-04-17T07:39:43.325Z,100921.70
2023-04-17T07:42:11.477Z,100928.27
2023-04-17T07:44:39.367Z,100925.70
2023-04-17T07:47:06.802Z,100921.27
2023-04-17T07:49:34.506Z,100924.32
2023-04-17T07:52:01.621Z,100923.20
2023-04-17T07:54:28.807Z,100925.19
2023-04-17T07:56:58.500Z,100925.55
2023-04-17T07:59:25.578Z,100931.80
2023-04-17T08:01:52.764Z,100933.52
2023-04-17T08:04:20.179Z,100937.86
2023-04-17T08:06:47.380Z,100938.70
2023-04-17T08:09:14.584Z,100940.84
2023-04-17T08:11:56.453Z,100942.53
2023-04-17T08:14:25.574Z,100945.28
2023-04-17T08:16:52.828Z,100944.80
2023-04-17T08:19:20.067Z,100947.39
2023-04-17T08:21:48.390Z,100946.17
2023-04-17T08:24:17.872Z,100951.40
2023-04-17T08:26:46.577Z,100954.12
2023-04-17T08:29:13.974Z,100958.89
2023-04-17T08:31:41.568Z,100959.80
2023-04-17T08:34:14.461Z,100956.21
2023-04-17T08:36:42.846Z,100956.08
2023-04-17T08:39:35.608Z,100960.05
2023-04-17T08:42:16.539Z,100963.98
2023-04-17T08:44:44.817Z,100968.28
2023-04-17T08:47:13.691Z,100966.65
2023-04-17T08:49:44.008Z,100967.51
2023-04-17T08:52:11.487Z,100971.93
2023-04-17T08:54:39.678Z,100974.89
2023-04-17T08:57:07.053Z,100975.77
2023-04-17T08:59:34.255Z,100976.52
2023-04-17T09:02:08.129Z,100980.36
2023-04-17T09:04:45.801Z,100985.21
2023-04-17T09:07:15.731Z,100984.30
2023-04-17T09:09:57.041Z,100981.20
2023-04-17T09:12:26.277Z,100980.77
2023-04-17T09:14:53.462Z,100980.30
2023-04-17T09:17:21.153Z,100979.34
2023-04-17T09:20:07.322Z,100981.88
2023-04-17T09:22:36.608Z,100982.13
2023-04-17T09:25:04.751Z,100982.36
2023-04-17T09:27:32.529Z,100985.42
2023-04-17T09:30:02.714Z,100985.55
2023-04-17T09:32:32.072Z,100981.61
2023-04-17T09:35:01.004Z,100983.05
2023-04-17T09:37:51.841Z,100984.21
2023-04-17T09:40:20.909Z,100984.14
2023-04-17T09:43:03.970Z,100984.73
2023-04-17T09:45:35.761Z,100986.94
2023-04-17T09:48:08.296Z,100981.20
2023-04-17T09:50:36.557Z,100982.89
2023-04-17T09:53:07.188Z,100983.33
2023-04-17T09:55:36.721Z,100986.48
2023-04-17T09:58:06.450Z,100985.98
2023-04-17T10:00:33.608Z,100984.13
2023-04-17T10:03:01.071Z,100983.56
2023-04-17T10:05:31.767Z,100983.92
2023-04-17T10:07:59.125Z,100979.67
2023-04-17T10:10:33.383Z,100985.64
2023-04-17T10:13:02.825Z,100984.33
2023-04-17T10:15:31.283Z,100985.79
2023-04-17T10:18:24.783Z,100993.23
2023-04-17T10:20:54.001Z,100994.05
2023-04-17T10:23:29.373Z,100994.38
2023-04-17T10:26:28.133Z,100987.23
2023-04-17T10:28:57.975Z,100983.80
2023-04-17T10:32:07.876Z,100988.92
2023-04-17T10:34:36.594Z,100990.19
2023-04-17T10:37:05.139Z,100991.58
2023-04-17T10:40:10.041Z,100992.90
2023-04-17T10:42:37.273Z,100991.66
2023-04-17T10:45:18.017Z,100989.55
2023-04-17T10:47:58.673Z,100990.09
2023-04-17T10:50:29.338Z,100988.68
2023-04-17T10:52:56.609Z,100988.61
2023-04-17T10:55:25.264Z,100991.09
2023-04-17T10:58:05.512Z,100987.67
2023-04-17T11:00:50.687Z,100995.70
2023-04-17T11:03:18.368Z,100997.85
2023-04-17T11:05:47.077Z,101001.23
2023-04-17T11:08:14.770Z,101002.66
2023-04-17T11:10:41.898Z,101002.89
2023-04-17T11:13:10.537Z,101003.04
2023-04-17T11:15:37.663Z,101004.93
2023-04-17T11:18:04.960Z,101004.73
2023-04-17T11:20:36.031Z,101008.98
2023-04-17T11:23:04.829Z,101008.02
2023-04-17T11:25:34.355Z,101013.17
2023-04-17T11:28:06.175Z,101012.93
2023-04-17T11:30:37.820Z,101013.55
2023-04-17T11:33:10.406Z,101015.51
2023-04-17T11:35:40.599Z,101020.03
2023-04-17T11:38:24.044Z,101018.20
2023-04-17T11:40:53.209Z,101020.27
2023-04-17T11:43:22.119Z,101018.02
2023-04-17T11:45:54.940Z,101022.38
2023-04-17T11:48:24.117Z,101024.64
2023-04-17T11:51:00.058Z,101024.80
2023-04-17T11:53:27.723Z,101028.52
2023-04-17T11:56:18.020Z,101027.65
2023-04-17T11:58:52.121Z,101025.95
2023-04-17T12:01:26.360Z,101028.16
2023-04-17T12:03:55.587Z,101030.54
2023-04-17T12:06:24.414Z,101033.58
2023-04-17T12:08:55.807Z,101033.58
2023-04-17T12:11:24.039Z,101029.58
2023-04-17T12:13:54.665Z,101030.38
2023-04-17T12:16:24.749Z,101034.64
2023-04-17T12:18:52.984Z,101033.45
2023-04-17T12:21:20.926Z,101033.99
2023-04-17T12:23:48.192Z,101034.70
2023-04-17T12:26:15.436Z,101033.69
2023-04-17T12:28:42.803Z,101035.06
2023-04-17T12:31:10.166Z,101031.95
2023-04-17T12:33:37.360Z,101025.36
2023-04-17T12:36:06.587Z,101026.14
2023-04-17T12:38:34.057Z,101024.48
2023-04-17T12:41:01.141Z,101022.79
2023-04-17T12:43:28.317Z,101028.95
2023-04-17T12:45:55.493Z,101025.48
2023-04-17T12:48:22.665Z,101026.87
2023-04-17T12:50:49.846Z,101025.09
2023-04-17T12:53:16.952Z,101032.87
2023-04-17T12:55:44.496Z,101031.66
2023-04-17T12:58:13.296Z,101034.23
2023-04-17T13:00:43.789Z,101036.41
2023-04-17T13:03:12.101Z,101040.07
2023-04-17T13:05:39.681Z,101037.09
2023-04-17T13:08:09.823Z,101037.79
2023-04-17T13:10:36.924Z,101039.52
2023-04-17T13:13:04.895Z,101040.23
2023-04-17T13:15:32.319Z,101037.21
2023-04-17T13:17:59.562Z,101037.89
2023-04-17T13:20:26.833Z,101037.25
2023-04-17T13:22:54.054Z,101036.25
2023-04-17T13:25:21.294Z,101039.33
2023-04-17T13:27:48.586Z,101037.82
2023-04-17T13:30:16.060Z,101040.23
2023-04-17T13:32:43.230Z,101036.99
2023-04-17T13:35:13.128Z,101036.36
2023-04-17T13:37:41.839Z,101037.88
2023-04-17T13:40:10.834Z,101038.05
2023-04-17T13:42:38.328Z,101037.36
2023-04-17T13:45:06.177Z,101034.38
2023-04-17T13:47:33.331Z,101038.25
2023-04-17T13:50:00.591Z,101034.11
2023-04-17T13:52:27.710Z,101037.01
2023-04-17T13:54:54.869Z,101037.89
2023-04-17T13:57:22.004Z,101038.26
2023-04-17T13:59:49.190Z,101041.86
2023-04-17T14:02:16.374Z,101039.67
2023-04-17T14:04:43.658Z,101038.98
2023-04-17T14:07:12.912Z,101041.60
2023-04-17T14:09:40.147Z,101041.30
2023-04-17T14:12:07.237Z,101044.36
2023-04-17T14:14:34.426Z,101044.19
2023-04-17T14:17:01.917Z,101041.92
2023-04-17T14:19:29.044Z,101041.39
2023-04-17T14:21:56.153Z,101043.73
2023-04-17T14:24:23.922Z,101042.39
2023-04-17T14:26:51.036Z,101039.38
2023-04-17T14:29:18.079Z,101042.50
2023-04-17T14:31:46.062Z,101040.80
2023-04-17T14:34:13.300Z,101039.96
2023-04-17T14:36:41.924Z,101038.73
2023-04-17T14:39:10.320Z,101035.58
2023-04-17T14:41:37.609Z,101029.61
2023-04-17T14:44:04.853Z,101034.33
2023-04-17T14:46:32.189Z,101034.35
2023-04-17T14:48:59.555Z,101034.59
2023-04-17T14:51:27.518Z,101034.33
2023-04-17T14:53:54.864Z,101035.30
2023-04-17T14:56:22.270Z,101033.27
2023-04-17T14:58:49.602Z,101036.25
2023-04-17T15:01:16.830Z,101034.62
2023-04-17T15:03:46.796Z,101033.61
2023-04-17T15:06:15.767Z,101034.70
2023-04-17T15:08:43.255Z,101036.25
2023-04-17T15:11:10.558Z,101035.28
2023-04-17T15:13:39.614Z,101035.77
2023-04-17T15:16:08.989Z,101033.43
2023-04-17T15:18:36.265Z,101031.01
2023-04-17T15:21:03.493Z,101030.99
2023-04-17T15:23:30.707Z,101032.29
2023-04-17T15:25:58.238Z,101026.83
2023-04-17T15:28:25.688Z,101027.46
2023-04-17T15:30:53.126Z,101027.63
2023-04-17T15:33:20.277Z,101026.38
2023-04-17T15:35:47.596Z,101029.09
2023-04-17T15:38:14.777Z,101029.85
2023-04-17T15:40:42.014Z,101027.64
2023-04-17T15:43:10.771Z,101028.84
2023-04-17T15:45:38.092Z,101028.81
2023-04-17T15:48:05.386Z,101031.04
2023-04-17T15:50:32.616Z,101032.89
2023-04-17T15:52:59.972Z,101030.60
2023-04-17T15:55:27.481Z,101028.55
2023-04-17T15:57:55.001Z,101026.29
2023-04-17T16:00:22.122Z,101030.27
2023-04-17T16:02:49.380Z,101030.36
2023-04-17T16:05:16.924Z,101030.28
2023-04-17T16:07:44.612Z,101034.73
2023-04-17T16:10:15.451Z,101032.07
2023-04-17T16:12:43.982Z,101032.88
2023-04-17T16:15:15.187Z,101035.55
2023-04-17T16:17:43.489Z,101035.75
2023-04-17T16:20:11.595Z,101035.60
2023-04-17T16:22:38.750Z,101039.64
2023-04-17T16:25:06.680Z,101041.13
2023-04-17T16:27:34.142Z,101036.18
2023-04-17T16:30:02.513Z,101038.17
2023-04-17T16:32:31.867Z,101036.98
2023-04-17T16:34:59.286Z,101038.21
2023-04-17T16:37:26.751Z,101037.86
2023-04-17T16:39:53.941Z,101039.44
2023-04-17T16:42:21.086Z,101039.19
2023-04-17T16:44:48.235Z,101044.78
2023-04-17T16:47:15.476Z,101049.61
2023-04-17T16:49:42.987Z,101048.64
2023-04-17T16:52:10.174Z,101051.52
2023-04-17T16:54:37.369Z,101047.58
2023-04-17T16:57:05.996Z,101052.73
2023-04-17T16:59:33.214Z,101051.73
2023-04-17T17:02:02.611Z,101056.86
2023-04-17T17:04:30.748Z,101060.64
2023-04-17T17:06:58.012Z,101059.52
2023-04-17T17:09:26.086Z,101062.15
2023-04-17T17:11:53.296Z,101064.27
2023-04-17T17:14:20.545Z,101062.66
2023-04-17T17:16:47.873Z,101061.79
2023-04-17T17:19:15.399Z,101061.30
2023-04-17T17:21:42.593Z,101066.30
2023-04-17T17:24:09.672Z,101068.77
2023-04-17T17:26:37.141Z,101067.95
2023-04-17T17:29:04.853Z,101070.91
2023-04-17T17:31:34.510Z,101079.45
2023-04-17T17:34:16.716Z,101081.24
2023-04-17T17:36:49.695Z,101080.86
2023-04-17T17:39:16.946Z,101080.45
2023-04-17T17:41:46.577Z,101086.80
2023-04-17T17:44:14.888Z,101083.16
2023-04-17T17:46:42.326Z,101082.74
2023-04-17T17:49:09.994Z,101085.23
2023-04-17T17:51:37.183Z,101086.08
2023-04-17T17:54:04.377Z,101089.73
2023-04-17T17:56:31.478Z,101087.23
2023-04-17T17:58:58.574Z,101093.32
2023-04-17T18:01:25.745Z,101095.89
2023-04-17T18:03:53.548Z,101098.05
2023-04-17T18:06:21.355Z,101100.17
2023-04-17T18:08:48.705Z,101104.67
2023-04-17T18:11:15.916Z,101111.98
2023-04-17T18:13:43.070Z,101111.73
2023-04-17T18:16:10.804Z,101112.31
2023-04-17T18:18:38.898Z,101116.02
2023-04-17T18:21:09.530Z,101114.84
2023-04-17T18:23:36.666Z,101115.34
2023-04-17T18:26:04.326Z,101118.56
2023-04-17T18:28:33.300Z,101118.77
2023-04-17T18:31:00.633Z,101120.85
2023-04-17T18:33:28.957Z,101120.61
2023-04-17T18:35:56.043Z,101123.44
2023-04-17T18:38:23.266Z,101125.57
2023-04-17T18:40:55.559Z,101127.59
2023-04-17T18:43:22.968Z,101127.65
2023-04-17T18:45:50.039Z,101129.36
2023-04-17T18:48:17.421Z,101130.92
2023-04-17T18:50:44.630Z,101129.90
2023-04-17T18:53:11.821Z,101133.84
2023-04-17T18:55:39.189Z,101131.94
2023-04-17T18:58:06.482Z,101131.39
2023-04-17T19:00:33.645Z,101131.48
2023-04-17T19:03:00.737Z,101133.02
2023-04-17T19:05:28.037Z,101139.83
2023-04-17T19:07:55.144Z,101138.39
2023-04-17T19:10:23.155Z,101138.23
2023-04-17T19:12:50.701Z,101138.70
2023-04-17T19:15:17.895Z,101138.16
2023-04-17T19:17:45.112Z,101135.98
2023-04-17T19:20:12.371Z,101141.79
2023-04-17T19:22:39.592Z,101143.44
2023-04-17T19:25:06.991Z,101147.83
2023-04-17T19:27:34.130Z,101149.89
2023-04-17T19:30:01.225Z,101147.77
2023-04-17T19:32:30.403Z,101143.53
2023-04-17T19:34:58.944Z,101139.01
2023-04-17T19:37:26.102Z,101137.61
2023-04-17T19:39:56.570Z,101139.90
2023-04-17T19:42:24.068Z,101138.88
2023-04-17T19:44:51.341Z,101145.12
2023-04-17T19:47:18.531Z,101141.86
2023-04-17T19:49:45.950Z,101143.36
2023-04-17T19:52:13.060Z,101142.98
2023-04-17T19:54:40.710Z,101142.21
2023-04-17T19:57:07.806Z,101141.73
2023-04-17T19:59:35.004Z,101140.98
2023-04-17T20:02:02.240Z,101141.00
2023-04-17T20:04:29.561Z,101140.63
2023-04-17T20:06:57.918Z,101140.30
2023-04-17T20:09:25.076Z,101139.45
2023-04-17T20:11:52.285Z,101140.06
2023-04-17T20:14:19.767Z,101140.56
2023-04-17T20:16:48.977Z,101142.05
2023-04-17T20:19:19.137Z,101142.50
2023-04-17T20:21:47.098Z,101147.48
2023-04-17T20:24:15.881Z,101145.37
2023-04-17T20:26:44.384Z,101148.58
2023-04-17T20:29:11.537Z,101146.54
2023-04-17T20:31:39.081Z,101146.31
2023-04-17T20:34:06.350Z,101143.09
2023-04-17T20:36:33.504Z,101144.13
2023-04-17T20:39:00.517Z,101145.73
2023-04-17T20:41:27.663Z,101146.52
2023-04-17T20:44:01.131Z,101146.73
2023-04-17T20:46:29.581Z,101145.48
2023-04-17T20:48:56.909Z,101148.48
2023-04-17T20:51:25.307Z,101149.23
2023-04-17T20:53:53.497Z,101152.52
2023-04-17T20:56:24.229Z,101154.84
2023-04-17T20:58:51.359Z,101156.48
2023-04-17T21:01:18.636Z,101163.46
2023-04-17T21:03:45.944Z,101155.26
2023-04-17T21:06:13.136Z,101157.66
2023-04-17T21:08:40.291Z,101163.65
2023-04-17T21:11:07.361Z,101157.08
2023-04-17T21:13:37.321Z,101157.89
2023-04-17T21:16:05.174Z,101168.52
2023-04-17T21:18:32.363Z,101166.96
2023-04-17T21:20:59.501Z,101166.69
2023-04-17T21:23:26.661Z,101170.62
2023-04-17T21:25:54.935Z,101169.83
2023-04-17T21:28:22.084Z,101168.02
2023-04-17T21:30:49.229Z,101171.80
2023-04-17T21:33:16.520Z,101173.02
2023-04-17T21:35:43.659Z,101172.93
2023-04-17T21:38:10.830Z,101173.61
2023-04-17T21:40:48.132Z,101176.40
2023-04-17T21:43:18.141Z,101178.16
2023-04-17T21:45:45.375Z,101175.40
2023-04-17T21:48:14.784Z,101167.43
2023-04-17T21:50:41.984Z,101168.48
2023-04-17T21:53:09.872Z,101171.45
2023-04-17T21:55:38.551Z,101174.20
2023-04-17T21:58:05.698Z,101170.80
2023-04-17T22:00:32.897Z,101172.09
2023-04-17T22:03:00.791Z,101172.80
2023-04-17T22:05:27.918Z,101177.53
2023-04-17T22:07:55.659Z,101176.38
2023-04-17T22:10:24.136Z,101173.19
2023-04-17T22:12:51.497Z,101173.76
2023-04-17T22:15:18.814Z,101174.31
2023-04-17T22:17:46.072Z,101170.48
2023-04-17T22:20:13.429Z,101170.70
2023-04-17T22:22:40.566Z,101175.38
2023-04-17T22:25:08.030Z,101175.30
2023-04-17T22:27:35.241Z,101175.66
2023-04-17T22:30:02.289Z,101178.77
2023-04-17T22:32:29.530Z,101180.11
2023-04-17T22:34:56.685Z,101180.23
2023-04-17T22:37:23.834Z,101178.45
2023-04-17T22:39:51.090Z,101183.13
2023-04-17T22:43:01.340Z,101182.63
2023-04-17T22:45:30.073Z,101188.71
2023-04-17T22:47:57.326Z,101186.56
2023-04-17T22:50:24.468Z,101187.92
2023-04-17T22:52:51.693Z,101188.41
2023-04-17T22:55:19.031Z,101188.16
2023-04-17T22:57:46.098Z,101179.91
2023-04-17T23:00:13.967Z,101177.48
2023-04-17T23:02:41.846Z,101176.73
2023-04-17T23:05:09.280Z,101178.59
2023-04-17T23:07:36.436Z,101180.40
2023-04-17T23:10:20.745Z,101178.72
2023-04-17T23:13:06.564Z,101180.43
2023-04-17T23:15:33.793Z,101177.25
2023-04-17T23:18:00.806Z,101179.84
2023-04-17T23:20:27.969Z,101178.63
2023-04-17T23:22:55.150Z,101179.63
2023-04-17T23:25:22.182Z,101175.36
2023-04-17T23:27:49.302Z,101181.35
2023-04-17T23:30:16.487Z,101183.83
2023-04-17T23:32:43.652Z,101177.08
2023-04-17T23:35:10.884Z,101176.54
2023-04-17T23:37:38.008Z,101176.60
2023-04-17T23:40:07.709Z,101175.24
2023-04-17T23:42:35.008Z,101179.97
2023-04-17T23:45:02.139Z,101176.18
2023-04-17T23:47:29.310Z,101175.55
2023-04-17T23:49:56.499Z,101177.65
2023-04-17T23:52:23.595Z,101175.83
2023-04-17T23:54:50.824Z,101179.61
2023-04-17T23:57:17.926Z,101179.41
2023-04-17T23:59:45.130Z,101179.81
